sensor_id;sensor_type;location;lat;lon;timestamp;P1;durP1;ratioP1;P2;durP2;ratioP2
66020;SDS011;52789;59.980;30.346;2023-09-08T00:02:11;7.40;;;3.27;;
66020;SDS011;52789;59.980;30.346;2023-09-08T00:04:37;10.07;;;3.70;;
66020;SDS011;52789;59.980;30.346;2023-09-08T00:07:03;7.33;;;3.10;;
66020;SDS011;52789;59.980;30.346;2023-09-08T00:09:29;10.40;;;4.13;;
66020;SDS011;52789;59.980;30.346;2023-09-08T00:11:54;6.40;;;3.40;;
66020;SDS011;52789;59.980;30.346;2023-09-08T00:14:20;6.63;;;3.53;;
66020;SDS011;52789;59.980;30.346;2023-09-08T00:16:45;6.53;;;2.97;;
66020;SDS011;52789;59.980;30.346;2023-09-08T00:19:11;7.77;;;3.00;;
66020;SDS011;52789;59.980;30.346;2023-09-08T00:21:37;7.57;;;3.33;;
66020;SDS011;52789;59.980;30.346;2023-09-08T00:24:03;11.77;;;3.63;;
66020;SDS011;52789;59.980;30.346;2023-09-08T00:26:29;6.20;;;3.83;;
66020;SDS011;52789;59.980;30.346;2023-09-08T00:28:55;8.70;;;3.00;;
66020;SDS011;52789;59.980;30.346;2023-09-08T00:31:21;5.37;;;2.77;;
66020;SDS011;52789;59.980;30.346;2023-09-08T00:33:46;7.13;;;2.90;;
66020;SDS011;52789;59.980;30.346;2023-09-08T00:36:12;6.60;;;3.63;;
66020;SDS011;52789;59.980;30.346;2023-09-08T00:38:37;5.33;;;2.83;;
66020;SDS011;52789;59.980;30.346;2023-09-08T00:41:04;9.63;;;3.60;;
66020;SDS011;52789;59.980;30.346;2023-09-08T00:43:30;8.87;;;3.30;;
66020;SDS011;52789;59.980;30.346;2023-09-08T00:45:56;8.70;;;3.13;;
66020;SDS011;52789;59.980;30.346;2023-09-08T00:48:23;3.45;;;2.70;;
66020;SDS011;52789;59.980;30.346;2023-09-08T00:50:50;8.40;;;3.17;;
66020;SDS011;52789;59.980;30.346;2023-09-08T00:53:15;8.47;;;3.30;;
66020;SDS011;52789;59.980;30.346;2023-09-08T00:55:41;6.50;;;3.40;;
66020;SDS011;52789;59.980;30.346;2023-09-08T00:58:07;6.17;;;3.40;;
66020;SDS011;52789;59.980;30.346;2023-09-08T01:00:32;10.37;;;4.87;;
66020;SDS011;52789;59.980;30.346;2023-09-08T01:02:58;5.67;;;3.33;;
66020;SDS011;52789;59.980;30.346;2023-09-08T01:05:23;7.33;;;3.63;;
66020;SDS011;52789;59.980;30.346;2023-09-08T01:07:49;7.53;;;3.33;;
66020;SDS011;52789;59.980;30.346;2023-09-08T01:10:15;9.07;;;3.40;;
66020;SDS011;52789;59.980;30.346;2023-09-08T01:12:41;10.53;;;4.10;;
66020;SDS011;52789;59.980;30.346;2023-09-08T01:15:07;7.20;;;3.73;;
66020;SDS011;52789;59.980;30.346;2023-09-08T01:17:33;5.33;;;3.10;;
66020;SDS011;52789;59.980;30.346;2023-09-08T01:20:01;9.47;;;3.80;;
66020;SDS011;52789;59.980;30.346;2023-09-08T01:25:23;10.77;;;3.73;;
66020;SDS011;52789;59.980;30.346;2023-09-08T01:27:50;8.10;;;4.00;;
66020;SDS011;52789;59.980;30.346;2023-09-08T01:30:21;7.33;;;3.33;;
66020;SDS011;52789;59.980;30.346;2023-09-08T01:32:50;6.53;;;4.10;;
66020;SDS011;52789;59.980;30.346;2023-09-08T01:35:16;7.60;;;3.87;;
66020;SDS011;52789;59.980;30.346;2023-09-08T01:37:44;5.20;;;3.10;;
66020;SDS011;52789;59.980;30.346;2023-09-08T01:40:10;5.45;;;3.78;;
66020;SDS011;52789;59.980;30.346;2023-09-08T01:42:37;8.23;;;4.00;;
66020;SDS011;52789;59.980;30.346;2023-09-08T01:45:03;6.40;;;3.73;;
66020;SDS011;52789;59.980;30.346;2023-09-08T01:47:29;9.60;;;3.63;;
66020;SDS011;52789;59.980;30.346;2023-09-08T01:49:55;8.53;;;3.27;;
66020;SDS011;52789;59.980;30.346;2023-09-08T01:52:20;5.67;;;3.20;;
66020;SDS011;52789;59.980;30.346;2023-09-08T01:54:46;6.20;;;3.67;;
66020;SDS011;52789;59.980;30.346;2023-09-08T01:57:11;9.90;;;4.47;;
66020;SDS011;52789;59.980;30.346;2023-09-08T01:59:37;5.27;;;3.13;;
66020;SDS011;52789;59.980;30.346;2023-09-08T02:02:02;8.33;;;3.60;;
66020;SDS011;52789;59.980;30.346;2023-09-08T02:04:28;9.57;;;4.27;;
66020;SDS011;52789;59.980;30.346;2023-09-08T02:06:54;10.57;;;4.37;;
66020;SDS011;52789;59.980;30.346;2023-09-08T02:09:20;8.00;;;3.57;;
66020;SDS011;52789;59.980;30.346;2023-09-08T02:11:45;5.87;;;3.17;;
66020;SDS011;52789;59.980;30.346;2023-09-08T02:14:11;7.80;;;3.80;;
66020;SDS011;52789;59.980;30.346;2023-09-08T02:16:36;9.43;;;4.17;;
66020;SDS011;52789;59.980;30.346;2023-09-08T02:19:01;8.23;;;4.00;;
66020;SDS011;52789;59.980;30.346;2023-09-08T02:21:27;11.87;;;4.17;;
66020;SDS011;52789;59.980;30.346;2023-09-08T02:23:52;7.47;;;3.27;;
66020;SDS011;52789;59.980;30.346;2023-09-08T02:26:18;8.47;;;4.77;;
66020;SDS011;52789;59.980;30.346;2023-09-08T02:28:43;6.57;;;3.73;;
66020;SDS011;52789;59.980;30.346;2023-09-08T02:31:10;7.23;;;4.50;;
66020;SDS011;52789;59.980;30.346;2023-09-08T02:33:36;12.13;;;4.37;;
66020;SDS011;52789;59.980;30.346;2023-09-08T02:36:05;8.23;;;4.53;;
66020;SDS011;52789;59.980;30.346;2023-09-08T02:38:31;10.40;;;4.93;;
66020;SDS011;52789;59.980;30.346;2023-09-08T02:40:57;13.50;;;4.57;;
66020;SDS011;52789;59.980;30.346;2023-09-08T02:43:22;13.80;;;4.70;;
66020;SDS011;52789;59.980;30.346;2023-09-08T02:45:48;7.63;;;4.00;;
66020;SDS011;52789;59.980;30.346;2023-09-08T02:48:14;9.60;;;4.80;;
66020;SDS011;52789;59.980;30.346;2023-09-08T02:50:39;5.97;;;3.50;;
66020;SDS011;52789;59.980;30.346;2023-09-08T02:53:05;6.77;;;4.57;;
66020;SDS011;52789;59.980;30.346;2023-09-08T02:55:30;6.67;;;3.57;;
66020;SDS011;52789;59.980;30.346;2023-09-08T02:57:56;8.30;;;4.40;;
66020;SDS011;52789;59.980;30.346;2023-09-08T03:00:22;10.00;;;4.00;;
66020;SDS011;52789;59.980;30.346;2023-09-08T03:02:47;14.97;;;4.40;;
66020;SDS011;52789;59.980;30.346;2023-09-08T03:05:12;6.87;;;4.37;;
66020;SDS011;52789;59.980;30.346;2023-09-08T03:07:38;10.00;;;4.43;;
66020;SDS011;52789;59.980;30.346;2023-09-08T03:10:04;8.33;;;4.40;;
66020;SDS011;52789;59.980;30.346;2023-09-08T03:12:30;9.53;;;4.57;;
66020;SDS011;52789;59.980;30.346;2023-09-08T03:14:56;7.73;;;4.37;;
66020;SDS011;52789;59.980;30.346;2023-09-08T03:17:21;6.90;;;4.90;;
66020;SDS011;52789;59.980;30.346;2023-09-08T03:19:47;8.60;;;4.40;;
66020;SDS011;52789;59.980;30.346;2023-09-08T03:22:12;8.53;;;4.70;;
66020;SDS011;52789;59.980;30.346;2023-09-08T03:24:38;9.30;;;5.00;;
66020;SDS011;52789;59.980;30.346;2023-09-08T03:27:03;9.40;;;4.97;;
66020;SDS011;52789;59.980;30.346;2023-09-08T03:29:29;7.97;;;4.80;;
66020;SDS011;52789;59.980;30.346;2023-09-08T03:31:54;8.03;;;4.83;;
66020;SDS011;52789;59.980;30.346;2023-09-08T03:34:20;10.73;;;4.37;;
66020;SDS011;52789;59.980;30.346;2023-09-08T03:36:46;14.03;;;5.30;;
66020;SDS011;52789;59.980;30.346;2023-09-08T03:39:12;5.50;;;4.50;;
66020;SDS011;52789;59.980;30.346;2023-09-08T03:41:37;7.93;;;4.83;;
66020;SDS011;52789;59.980;30.346;2023-09-08T03:44:03;9.50;;;5.40;;
66020;SDS011;52789;59.980;30.346;2023-09-08T03:46:28;10.17;;;5.77;;
66020;SDS011;52789;59.980;30.346;2023-09-08T03:48:54;9.07;;;4.33;;
66020;SDS011;52789;59.980;30.346;2023-09-08T03:51:24;11.23;;;5.10;;
66020;SDS011;52789;59.980;30.346;2023-09-08T03:53:49;7.40;;;5.13;;
66020;SDS011;52789;59.980;30.346;2023-09-08T03:56:16;12.20;;;5.17;;
66020;SDS011;52789;59.980;30.346;2023-09-08T03:58:41;10.63;;;5.57;;
66020;SDS011;52789;59.980;30.346;2023-09-08T04:01:07;8.13;;;4.63;;
66020;SDS011;52789;59.980;30.346;2023-09-08T04:03:32;9.00;;;5.27;;
66020;SDS011;52789;59.980;30.346;2023-09-08T04:05:58;8.50;;;5.20;;
66020;SDS011;52789;59.980;30.346;2023-09-08T04:08:23;7.03;;;5.10;;
66020;SDS011;52789;59.980;30.346;2023-09-08T04:10:49;9.30;;;4.70;;
66020;SDS011;52789;59.980;30.346;2023-09-08T04:13:15;9.50;;;4.80;;
66020;SDS011;52789;59.980;30.346;2023-09-08T04:15:40;7.10;;;5.00;;
66020;SDS011;52789;59.980;30.346;2023-09-08T04:18:05;5.63;;;4.30;;
66020;SDS011;52789;59.980;30.346;2023-09-08T04:20:31;5.10;;;3.70;;
66020;SDS011;52789;59.980;30.346;2023-09-08T04:22:56;7.73;;;4.07;;
66020;SDS011;52789;59.980;30.346;2023-09-08T04:25:22;6.70;;;4.63;;
66020;SDS011;52789;59.980;30.346;2023-09-08T04:27:47;10.00;;;4.20;;
66020;SDS011;52789;59.980;30.346;2023-09-08T04:30:14;10.67;;;4.30;;
66020;SDS011;52789;59.980;30.346;2023-09-08T04:32:39;6.73;;;4.13;;
66020;SDS011;52789;59.980;30.346;2023-09-08T04:35:05;6.67;;;4.73;;
66020;SDS011;52789;59.980;30.346;2023-09-08T04:37:31;11.87;;;4.33;;
66020;SDS011;52789;59.980;30.346;2023-09-08T04:39:56;7.93;;;4.10;;
66020;SDS011;52789;59.980;30.346;2023-09-08T04:42:22;5.80;;;4.30;;
66020;SDS011;52789;59.980;30.346;2023-09-08T04:44:48;7.53;;;3.83;;
66020;SDS011;52789;59.980;30.346;2023-09-08T04:47:14;8.47;;;4.03;;
66020;SDS011;52789;59.980;30.346;2023-09-08T04:49:39;6.30;;;3.90;;
66020;SDS011;52789;59.980;30.346;2023-09-08T04:52:05;10.87;;;5.10;;
66020;SDS011;52789;59.980;30.346;2023-09-08T04:54:31;6.43;;;3.87;;
66020;SDS011;52789;59.980;30.346;2023-09-08T04:56:57;7.90;;;4.30;;
66020;SDS011;52789;59.980;30.346;2023-09-08T04:59:22;5.60;;;3.53;;
66020;SDS011;52789;59.980;30.346;2023-09-08T05:01:48;6.47;;;4.30;;
66020;SDS011;52789;59.980;30.346;2023-09-08T05:04:16;8.20;;;3.60;;
66020;SDS011;52789;59.980;30.346;2023-09-08T05:06:42;8.43;;;3.47;;
66020;SDS011;52789;59.980;30.346;2023-09-08T05:09:07;6.80;;;3.70;;
66020;SDS011;52789;59.980;30.346;2023-09-08T05:11:33;6.30;;;3.83;;
66020;SDS011;52789;59.980;30.346;2023-09-08T05:13:58;5.13;;;3.13;;
66020;SDS011;52789;59.980;30.346;2023-09-08T05:16:24;3.90;;;3.30;;
66020;SDS011;52789;59.980;30.346;2023-09-08T05:19:04;4.40;;;2.80;;
66020;SDS011;52789;59.980;30.346;2023-09-08T05:21:31;6.83;;;3.27;;
66020;SDS011;52789;59.980;30.346;2023-09-08T05:23:57;6.37;;;3.00;;
66020;SDS011;52789;59.980;30.346;2023-09-08T05:26:23;5.37;;;3.27;;
66020;SDS011;52789;59.980;30.346;2023-09-08T05:28:48;4.03;;;3.47;;
66020;SDS011;52789;59.980;30.346;2023-09-08T05:31:17;6.93;;;2.93;;
66020;SDS011;52789;59.980;30.346;2023-09-08T05:33:43;9.67;;;2.87;;
66020;SDS011;52789;59.980;30.346;2023-09-08T05:36:08;4.57;;;2.90;;
66020;SDS011;52789;59.980;30.346;2023-09-08T05:38:34;5.37;;;3.30;;
66020;SDS011;52789;59.980;30.346;2023-09-08T05:40:59;5.37;;;2.67;;
66020;SDS011;52789;59.980;30.346;2023-09-08T05:43:25;4.33;;;2.77;;
66020;SDS011;52789;59.980;30.346;2023-09-08T05:45:50;13.40;;;3.50;;
66020;SDS011;52789;59.980;30.346;2023-09-08T05:48:16;8.27;;;3.90;;
66020;SDS011;52789;59.980;30.346;2023-09-08T05:50:42;12.73;;;4.60;;
66020;SDS011;52789;59.980;30.346;2023-09-08T05:53:07;6.43;;;3.40;;
66020;SDS011;52789;59.980;30.346;2023-09-08T05:55:33;11.30;;;3.57;;
66020;SDS011;52789;59.980;30.346;2023-09-08T05:57:58;6.67;;;3.80;;
66020;SDS011;52789;59.980;30.346;2023-09-08T06:00:24;6.97;;;3.93;;
66020;SDS011;52789;59.980;30.346;2023-09-08T06:02:49;6.63;;;3.27;;
66020;SDS011;52789;59.980;30.346;2023-09-08T06:05:15;5.40;;;3.43;;
66020;SDS011;52789;59.980;30.346;2023-09-08T06:07:40;7.13;;;3.20;;
66020;SDS011;52789;59.980;30.346;2023-09-08T06:10:06;6.27;;;2.90;;
66020;SDS011;52789;59.980;30.346;2023-09-08T06:12:31;11.80;;;3.30;;
66020;SDS011;52789;59.980;30.346;2023-09-08T06:14:57;5.83;;;3.00;;
66020;SDS011;52789;59.980;30.346;2023-09-08T06:17:22;5.83;;;3.80;;
66020;SDS011;52789;59.980;30.346;2023-09-08T06:19:48;5.10;;;3.57;;
66020;SDS011;52789;59.980;30.346;2023-09-08T06:22:13;9.13;;;3.50;;
66020;SDS011;52789;59.980;30.346;2023-09-08T06:24:38;5.70;;;2.97;;
66020;SDS011;52789;59.980;30.346;2023-09-08T06:27:05;9.37;;;2.93;;
66020;SDS011;52789;59.980;30.346;2023-09-08T06:29:30;15.57;;;3.27;;
66020;SDS011;52789;59.980;30.346;2023-09-08T06:31:56;6.33;;;3.00;;
66020;SDS011;52789;59.980;30.346;2023-09-08T06:34:21;6.83;;;3.27;;
66020;SDS011;52789;59.980;30.346;2023-09-08T06:36:48;6.03;;;3.37;;
66020;SDS011;52789;59.980;30.346;2023-09-08T06:39:14;5.10;;;3.63;;
66020;SDS011;52789;59.980;30.346;2023-09-08T06:41:39;4.27;;;3.03;;
66020;SDS011;52789;59.980;30.346;2023-09-08T06:44:05;9.00;;;4.20;;
66020;SDS011;52789;59.980;30.346;2023-09-08T06:46:30;5.47;;;2.63;;
66020;SDS011;52789;59.980;30.346;2023-09-08T06:48:56;5.33;;;3.37;;
66020;SDS011;52789;59.980;30.346;2023-09-08T06:51:21;6.13;;;3.73;;
66020;SDS011;52789;59.980;30.346;2023-09-08T06:53:56;5.57;;;2.87;;
66020;SDS011;52789;59.980;30.346;2023-09-08T06:56:22;6.67;;;2.73;;
66020;SDS011;52789;59.980;30.346;2023-09-08T06:58:48;6.20;;;3.33;;
66020;SDS011;52789;59.980;30.346;2023-09-08T07:01:14;8.97;;;3.27;;
66020;SDS011;52789;59.980;30.346;2023-09-08T07:03:40;4.43;;;2.80;;
66020;SDS011;52789;59.980;30.346;2023-09-08T07:06:06;6.47;;;3.63;;
66020;SDS011;52789;59.980;30.346;2023-09-08T07:08:31;8.45;;;2.97;;
66020;SDS011;52789;59.980;30.346;2023-09-08T07:10:57;6.17;;;3.50;;
66020;SDS011;52789;59.980;30.346;2023-09-08T07:13:22;6.70;;;3.97;;
66020;SDS011;52789;59.980;30.346;2023-09-08T07:15:48;6.30;;;3.30;;
66020;SDS011;52789;59.980;30.346;2023-09-08T07:18:13;4.65;;;2.42;;
66020;SDS011;52789;59.980;30.346;2023-09-08T07:20:38;7.78;;;2.55;;
66020;SDS011;52789;59.980;30.346;2023-09-08T07:23:05;5.18;;;3.50;;
66020;SDS011;52789;59.980;30.346;2023-09-08T07:25:31;6.38;;;3.88;;
66020;SDS011;52789;59.980;30.346;2023-09-08T07:27:56;5.40;;;2.25;;
66020;SDS011;52789;59.980;30.346;2023-09-08T07:30:23;5.32;;;3.00;;
66020;SDS011;52789;59.980;30.346;2023-09-08T07:32:49;5.85;;;2.83;;
66020;SDS011;52789;59.980;30.346;2023-09-08T07:35:15;5.80;;;2.55;;
66020;SDS011;52789;59.980;30.346;2023-09-08T07:37:42;6.60;;;2.95;;
66020;SDS011;52789;59.980;30.346;2023-09-08T07:40:10;5.75;;;2.50;;
66020;SDS011;52789;59.980;30.346;2023-09-08T07:42:36;7.80;;;2.92;;
66020;SDS011;52789;59.980;30.346;2023-09-08T07:45:02;6.22;;;3.08;;
66020;SDS011;52789;59.980;30.346;2023-09-08T07:47:30;4.95;;;2.47;;
66020;SDS011;52789;59.980;30.346;2023-09-08T07:50:15;6.50;;;3.20;;
66020;SDS011;52789;59.980;30.346;2023-09-08T07:52:42;6.25;;;3.50;;
66020;SDS011;52789;59.980;30.346;2023-09-08T07:55:08;4.20;;;2.63;;
66020;SDS011;52789;59.980;30.346;2023-09-08T07:57:33;4.70;;;3.30;;
66020;SDS011;52789;59.980;30.346;2023-09-08T07:59:59;5.15;;;3.10;;
66020;SDS011;52789;59.980;30.346;2023-09-08T08:02:24;7.93;;;2.90;;
66020;SDS011;52789;59.980;30.346;2023-09-08T08:04:49;5.38;;;3.15;;
66020;SDS011;52789;59.980;30.346;2023-09-08T08:07:15;10.75;;;3.67;;
66020;SDS011;52789;59.980;30.346;2023-09-08T08:09:40;7.13;;;3.03;;
66020;SDS011;52789;59.980;30.346;2023-09-08T08:12:06;11.65;;;3.60;;
66020;SDS011;52789;59.980;30.346;2023-09-08T08:14:31;10.75;;;3.47;;
66020;SDS011;52789;59.980;30.346;2023-09-08T08:16:57;7.43;;;3.38;;
66020;SDS011;52789;59.980;30.346;2023-09-08T08:19:22;9.32;;;3.22;;
66020;SDS011;52789;59.980;30.346;2023-09-08T08:21:48;5.28;;;2.88;;
66020;SDS011;52789;59.980;30.346;2023-09-08T08:24:13;8.25;;;3.85;;
66020;SDS011;52789;59.980;30.346;2023-09-08T08:26:39;4.13;;;2.83;;
66020;SDS011;52789;59.980;30.346;2023-09-08T08:29:04;8.13;;;2.90;;
66020;SDS011;52789;59.980;30.346;2023-09-08T08:31:30;6.38;;;2.75;;
66020;SDS011;52789;59.980;30.346;2023-09-08T08:33:55;4.55;;;3.35;;
66020;SDS011;52789;59.980;30.346;2023-09-08T08:36:21;5.50;;;3.40;;
66020;SDS011;52789;59.980;30.346;2023-09-08T08:38:46;10.65;;;2.83;;
66020;SDS011;52789;59.980;30.346;2023-09-08T08:41:11;7.40;;;2.85;;
66020;SDS011;52789;59.980;30.346;2023-09-08T08:43:37;7.68;;;3.00;;
66020;SDS011;52789;59.980;30.346;2023-09-08T08:46:02;4.82;;;2.70;;
66020;SDS011;52789;59.980;30.346;2023-09-08T08:48:29;6.03;;;3.13;;
66020;SDS011;52789;59.980;30.346;2023-09-08T08:50:57;5.43;;;2.88;;
66020;SDS011;52789;59.980;30.346;2023-09-08T08:53:24;7.75;;;3.50;;
66020;SDS011;52789;59.980;30.346;2023-09-08T08:55:50;6.57;;;3.25;;
66020;SDS011;52789;59.980;30.346;2023-09-08T08:58:21;5.20;;;2.42;;
66020;SDS011;52789;59.980;30.346;2023-09-08T09:00:50;7.93;;;3.88;;
66020;SDS011;52789;59.980;30.346;2023-09-08T09:05:45;5.13;;;3.03;;
66020;SDS011;52789;59.980;30.346;2023-09-08T09:08:11;6.72;;;2.50;;
66020;SDS011;52789;59.980;30.346;2023-09-08T09:10:38;4.90;;;2.88;;
66020;SDS011;52789;59.980;30.346;2023-09-08T09:13:03;5.38;;;2.80;;
66020;SDS011;52789;59.980;30.346;2023-09-08T09:15:30;4.43;;;2.47;;
66020;SDS011;52789;59.980;30.346;2023-09-08T09:18:06;6.03;;;1.92;;
66020;SDS011;52789;59.980;30.346;2023-09-08T09:20:33;4.53;;;2.88;;
66020;SDS011;52789;59.980;30.346;2023-09-08T09:22:59;4.00;;;1.95;;
66020;SDS011;52789;59.980;30.346;2023-09-08T09:25:29;5.60;;;2.00;;
66020;SDS011;52789;59.980;30.346;2023-09-08T09:27:57;5.32;;;2.47;;
66020;SDS011;52789;59.980;30.346;2023-09-08T09:30:25;5.55;;;2.75;;
66020;SDS011;52789;59.980;30.346;2023-09-08T09:35:49;4.78;;;1.95;;
66020;SDS011;52789;59.980;30.346;2023-09-08T09:38:17;5.28;;;2.08;;
66020;SDS011;52789;59.980;30.346;2023-09-08T09:40:44;6.20;;;2.20;;
66020;SDS011;52789;59.980;30.346;2023-09-08T09:43:10;4.30;;;2.05;;
66020;SDS011;52789;59.980;30.346;2023-09-08T09:45:37;3.17;;;1.80;;
66020;SDS011;52789;59.980;30.346;2023-09-08T09:48:04;4.05;;;1.88;;
66020;SDS011;52789;59.980;30.346;2023-09-08T09:50:31;3.35;;;2.15;;
66020;SDS011;52789;59.980;30.346;2023-09-08T09:52:59;2.35;;;1.65;;
66020;SDS011;52789;59.980;30.346;2023-09-08T09:55:28;6.70;;;2.17;;
66020;SDS011;52789;59.980;30.346;2023-09-08T09:57:55;4.80;;;2.10;;
66020;SDS011;52789;59.980;30.346;2023-09-08T10:00:29;2.80;;;2.25;;
66020;SDS011;52789;59.980;30.346;2023-09-08T10:02:55;5.22;;;3.08;;
66020;SDS011;52789;59.980;30.346;2023-09-08T10:05:22;5.22;;;2.15;;
66020;SDS011;52789;59.980;30.346;2023-09-08T10:07:48;6.25;;;2.05;;
66020;SDS011;52789;59.980;30.346;2023-09-08T10:10:15;5.93;;;2.85;;
66020;SDS011;52789;59.980;30.346;2023-09-08T10:12:45;5.13;;;2.72;;
66020;SDS011;52789;59.980;30.346;2023-09-08T10:15:15;5.65;;;2.88;;
66020;SDS011;52789;59.980;30.346;2023-09-08T10:17:44;3.08;;;1.75;;
66020;SDS011;52789;59.980;30.346;2023-09-08T10:20:12;3.13;;;1.83;;
66020;SDS011;52789;59.980;30.346;2023-09-08T10:22:41;3.53;;;1.95;;
66020;SDS011;52789;59.980;30.346;2023-09-08T10:25:08;3.35;;;1.95;;
66020;SDS011;52789;59.980;30.346;2023-09-08T10:27:35;4.75;;;1.80;;
66020;SDS011;52789;59.980;30.346;2023-09-08T10:30:03;2.83;;;1.88;;
66020;SDS011;52789;59.980;30.346;2023-09-08T10:32:34;7.90;;;2.75;;
66020;SDS011;52789;59.980;30.346;2023-09-08T10:35:05;8.02;;;2.35;;
66020;SDS011;52789;59.980;30.346;2023-09-08T10:37:31;3.50;;;2.15;;
66020;SDS011;52789;59.980;30.346;2023-09-08T10:42:45;5.60;;;2.50;;
66020;SDS011;52789;59.980;30.346;2023-09-08T10:45:14;6.25;;;2.67;;
66020;SDS011;52789;59.980;30.346;2023-09-08T10:47:41;4.40;;;3.33;;
66020;SDS011;52789;59.980;30.346;2023-09-08T10:50:29;6.32;;;2.00;;
66020;SDS011;52789;59.980;30.346;2023-09-08T10:53:07;4.03;;;2.47;;
66020;SDS011;52789;59.980;30.346;2023-09-08T10:58:17;3.80;;;2.55;;
66020;SDS011;52789;59.980;30.346;2023-09-08T11:00:44;6.70;;;2.75;;
66020;SDS011;52789;59.980;30.346;2023-09-08T11:03:11;3.53;;;2.30;;
66020;SDS011;52789;59.980;30.346;2023-09-08T11:05:38;4.75;;;2.17;;
66020;SDS011;52789;59.980;30.346;2023-09-08T11:08:04;2.85;;;2.13;;
66020;SDS011;52789;59.980;30.346;2023-09-08T11:10:30;4.97;;;2.03;;
66020;SDS011;52789;59.980;30.346;2023-09-08T11:12:56;6.07;;;2.03;;
66020;SDS011;52789;59.980;30.346;2023-09-08T11:15:22;2.83;;;2.05;;
66020;SDS011;52789;59.980;30.346;2023-09-08T11:17:47;6.03;;;2.58;;
66020;SDS011;52789;59.980;30.346;2023-09-08T11:20:16;3.17;;;2.10;;
66020;SDS011;52789;59.980;30.346;2023-09-08T11:22:50;2.83;;;1.52;;
66020;SDS011;52789;59.980;30.346;2023-09-08T11:25:16;6.65;;;2.72;;
66020;SDS011;52789;59.980;30.346;2023-09-08T11:27:42;4.30;;;2.00;;
66020;SDS011;52789;59.980;30.346;2023-09-08T11:30:11;7.28;;;2.58;;
66020;SDS011;52789;59.980;30.346;2023-09-08T11:32:38;5.13;;;2.25;;
66020;SDS011;52789;59.980;30.346;2023-09-08T11:35:08;3.05;;;1.80;;
66020;SDS011;52789;59.980;30.346;2023-09-08T11:37:38;8.15;;;1.73;;
66020;SDS011;52789;59.980;30.346;2023-09-08T11:40:07;12.93;;;4.75;;
66020;SDS011;52789;59.980;30.346;2023-09-08T11:42:35;4.00;;;2.42;;
66020;SDS011;52789;59.980;30.346;2023-09-08T11:45:00;3.22;;;2.17;;
66020;SDS011;52789;59.980;30.346;2023-09-08T11:47:29;7.47;;;2.25;;
66020;SDS011;52789;59.980;30.346;2023-09-08T11:49:54;5.45;;;2.38;;
66020;SDS011;52789;59.980;30.346;2023-09-08T11:52:22;4.47;;;2.00;;
66020;SDS011;52789;59.980;30.346;2023-09-08T11:54:48;7.18;;;2.40;;
66020;SDS011;52789;59.980;30.346;2023-09-08T11:57:14;7.22;;;2.40;;
66020;SDS011;52789;59.980;30.346;2023-09-08T11:59:40;11.38;;;3.30;;
66020;SDS011;52789;59.980;30.346;2023-09-08T12:02:06;2.40;;;2.05;;
66020;SDS011;52789;59.980;30.346;2023-09-08T12:04:35;8.10;;;2.10;;
66020;SDS011;52789;59.980;30.346;2023-09-08T12:07:01;6.30;;;2.55;;
66020;SDS011;52789;59.980;30.346;2023-09-08T12:09:27;5.45;;;2.22;;
66020;SDS011;52789;59.980;30.346;2023-09-08T12:11:52;3.58;;;1.98;;
66020;SDS011;52789;59.980;30.346;2023-09-08T12:14:18;9.27;;;3.88;;
66020;SDS011;52789;59.980;30.346;2023-09-08T12:16:43;5.45;;;2.53;;
66020;SDS011;52789;59.980;30.346;2023-09-08T12:19:30;6.60;;;1.80;;
66020;SDS011;52789;59.980;30.346;2023-09-08T12:22:01;7.07;;;2.40;;
66020;SDS011;52789;59.980;30.346;2023-09-08T12:27:25;3.13;;;2.20;;
66020;SDS011;52789;59.980;30.346;2023-09-08T12:30:00;6.15;;;2.15;;
66020;SDS011;52789;59.980;30.346;2023-09-08T12:32:32;5.10;;;1.90;;
66020;SDS011;52789;59.980;30.346;2023-09-08T12:34:58;10.27;;;2.63;;
66020;SDS011;52789;59.980;30.346;2023-09-08T12:37:27;5.32;;;2.58;;
66020;SDS011;52789;59.980;30.346;2023-09-08T12:39:56;6.03;;;2.83;;
66020;SDS011;52789;59.980;30.346;2023-09-08T12:42:22;4.20;;;1.70;;
66020;SDS011;52789;59.980;30.346;2023-09-08T12:44:51;5.45;;;2.53;;
66020;SDS011;52789;59.980;30.346;2023-09-08T12:47:17;10.60;;;4.57;;
66020;SDS011;52789;59.980;30.346;2023-09-08T12:49:42;4.38;;;2.05;;
66020;SDS011;52789;59.980;30.346;2023-09-08T12:52:08;4.85;;;2.10;;
66020;SDS011;52789;59.980;30.346;2023-09-08T12:54:34;7.30;;;3.45;;
66020;SDS011;52789;59.980;30.346;2023-09-08T12:57:00;5.90;;;2.22;;
66020;SDS011;52789;59.980;30.346;2023-09-08T12:59:26;7.00;;;3.95;;
66020;SDS011;52789;59.980;30.346;2023-09-08T13:01:52;6.82;;;2.20;;
66020;SDS011;52789;59.980;30.346;2023-09-08T13:04:17;5.82;;;2.45;;
66020;SDS011;52789;59.980;30.346;2023-09-08T13:06:44;8.38;;;1.77;;
66020;SDS011;52789;59.980;30.346;2023-09-08T13:09:09;5.25;;;2.03;;
66020;SDS011;52789;59.980;30.346;2023-09-08T13:11:35;6.03;;;2.03;;
66020;SDS011;52789;59.980;30.346;2023-09-08T13:14:00;3.22;;;2.05;;
66020;SDS011;52789;59.980;30.346;2023-09-08T13:16:26;4.57;;;1.80;;
66020;SDS011;52789;59.980;30.346;2023-09-08T13:18:51;4.60;;;2.13;;
66020;SDS011;52789;59.980;30.346;2023-09-08T13:21:17;3.20;;;1.58;;
66020;SDS011;52789;59.980;30.346;2023-09-08T13:24:02;3.97;;;1.95;;
66020;SDS011;52789;59.980;30.346;2023-09-08T13:26:31;3.42;;;1.58;;
66020;SDS011;52789;59.980;30.346;2023-09-08T13:28:56;3.78;;;1.70;;
66020;SDS011;52789;59.980;30.346;2023-09-08T13:31:22;2.50;;;1.45;;
66020;SDS011;52789;59.980;30.346;2023-09-08T13:33:49;5.38;;;1.92;;
66020;SDS011;52789;59.980;30.346;2023-09-08T13:36:14;3.58;;;1.70;;
66020;SDS011;52789;59.980;30.346;2023-09-08T13:38:40;3.30;;;2.08;;
66020;SDS011;52789;59.980;30.346;2023-09-08T13:41:05;6.55;;;2.35;;
66020;SDS011;52789;59.980;30.346;2023-09-08T13:43:31;4.97;;;2.08;;
66020;SDS011;52789;59.980;30.346;2023-09-08T13:45:56;3.25;;;1.65;;
66020;SDS011;52789;59.980;30.346;2023-09-08T13:48:22;2.60;;;1.65;;
66020;SDS011;52789;59.980;30.346;2023-09-08T13:50:47;3.25;;;1.88;;
66020;SDS011;52789;59.980;30.346;2023-09-08T13:53:13;8.68;;;1.63;;
66020;SDS011;52789;59.980;30.346;2023-09-08T13:55:38;2.67;;;1.48;;
66020;SDS011;52789;59.980;30.346;2023-09-08T13:58:04;2.88;;;1.95;;
66020;SDS011;52789;59.980;30.346;2023-09-08T14:00:29;2.13;;;1.25;;
66020;SDS011;52789;59.980;30.346;2023-09-08T14:02:55;4.20;;;1.85;;
66020;SDS011;52789;59.980;30.346;2023-09-08T14:05:20;2.65;;;1.55;;
66020;SDS011;52789;59.980;30.346;2023-09-08T14:07:46;2.53;;;1.60;;
66020;SDS011;52789;59.980;30.346;2023-09-08T14:10:11;2.72;;;1.63;;
66020;SDS011;52789;59.980;30.346;2023-09-08T14:12:37;6.30;;;2.17;;
66020;SDS011;52789;59.980;30.346;2023-09-08T14:15:02;5.53;;;1.92;;
66020;SDS011;52789;59.980;30.346;2023-09-08T14:17:29;6.13;;;2.20;;
66020;SDS011;52789;59.980;30.346;2023-09-08T14:19:55;5.70;;;1.77;;
66020;SDS011;52789;59.980;30.346;2023-09-08T14:22:20;4.72;;;1.83;;
66020;SDS011;52789;59.980;30.346;2023-09-08T14:24:49;3.53;;;1.40;;
66020;SDS011;52789;59.980;30.346;2023-09-08T14:27:14;3.78;;;1.92;;
66020;SDS011;52789;59.980;30.346;2023-09-08T14:29:40;7.13;;;2.85;;
66020;SDS011;52789;59.980;30.346;2023-09-08T14:32:08;5.03;;;2.28;;
66020;SDS011;52789;59.980;30.346;2023-09-08T14:36:59;5.68;;;2.05;;
66020;SDS011;52789;59.980;30.346;2023-09-08T14:39:24;3.63;;;2.10;;
66020;SDS011;52789;59.980;30.346;2023-09-08T14:41:51;2.90;;;1.80;;
66020;SDS011;52789;59.980;30.346;2023-09-08T14:44:17;3.47;;;2.22;;
66020;SDS011;52789;59.980;30.346;2023-09-08T14:46:43;4.28;;;2.20;;
66020;SDS011;52789;59.980;30.346;2023-09-08T14:49:08;4.25;;;1.67;;